sensor_id;sensor_type;location;lat;lon;timestamp;pressure;altitude;pressure_sealevel;temperature;humidity
21431;BME280;10876;49.038;10.608;2023-05-17T00:01:23;99334.59;;;5.88;100.00
21431;BME280;10876;49.038;10.608;2023-05-17T00:03:50;99342.84;;;6.04;100.00
21431;BME280;10876;49.038;10.608;2023-05-17T00:06:19;99343.69;;;6.09;100.00
21431;BME280;10876;49.038;10.608;2023-05-17T00:08:46;99344.59;;;6.36;100.00
21431;BME280;10876;49.038;10.608;2023-05-17T00:11:13;99340.84;;;6.57;100.00
21431;BME280;10876;49.038;10.608;2023-05-17T00:13:40;99337.03;;;6.58;100.00
21431;BME280;10876;49.038;10.608;2023-05-17T00:16:07;99340.88;;;6.67;100.00
21431;BME280;10876;49.038;10.608;2023-05-17T00:18:34;99344.59;;;6.30;100.00
21431;BME280;10876;49.038;10.608;2023-05-17T00:21:00;99342.88;;;6.14;100.00
21431;BME280;10876;49.038;10.608;2023-05-17T00:23:28;99340.78;;;6.37;100.00
21431;BME280;10876;49.038;10.608;2023-05-17T00:25:55;99335.34;;;6.37;100.00
21431;BME280;10876;49.038;10.608;2023-05-17T00:28:22;99341.06;;;6.30;100.00
21431;BME280;10876;49.038;10.608;2023-05-17T00:30:48;99337.50;;;6.35;100.00
21431;BME280;10876;49.038;10.608;2023-05-17T00:33:15;99334.47;;;6.16;100.00
21431;BME280;10876;49.038;10.608;2023-05-17T00:35:42;99336.34;;;6.10;100.00
21431;BME280;10876;49.038;10.608;2023-05-17T00:38:08;99334.72;;;6.14;100.00
21431;BME280;10876;49.038;10.608;2023-05-17T00:40:36;99335.28;;;6.16;100.00
21431;BME280;10876;49.038;10.608;2023-05-17T00:43:03;99333.69;;;6.25;100.00
21431;BME280;10876;49.038;10.608;2023-05-17T00:45:30;99336.94;;;6.22;100.00
21431;BME280;10876;49.038;10.608;2023-05-17T00:47:56;99335.22;;;5.96;100.00
21431;BME280;10876;49.038;10.608;2023-05-17T00:50:23;99336.19;;;5.79;100.00
21431;BME280;10876;49.038;10.608;2023-05-17T00:52:50;99336.44;;;5.78;100.00
21431;BME280;10876;49.038;10.608;2023-05-17T00:55:17;99336.63;;;5.66;100.00
21431;BME280;10876;49.038;10.608;2023-05-17T00:57:45;99348.09;;;5.73;100.00
21431;BME280;10876;49.038;10.608;2023-05-17T01:00:12;99334.56;;;5.78;100.00
21431;BME280;10876;49.038;10.608;2023-05-17T01:02:39;99338.94;;;5.84;100.00
21431;BME280;10876;49.038;10.608;2023-05-17T01:05:08;99336.88;;;6.07;100.00
21431;BME280;10876;49.038;10.608;2023-05-17T01:07:35;99329.84;;;6.16;100.00
21431;BME280;10876;49.038;10.608;2023-05-17T01:10:02;99330.59;;;6.06;100.00
21431;BME280;10876;49.038;10.608;2023-05-17T01:12:39;99335.75;;;6.03;100.00
21431;BME280;10876;49.038;10.608;2023-05-17T01:15:14;99335.22;;;6.01;100.00
21431;BME280;10876;49.038;10.608;2023-05-17T01:17:49;99338.19;;;5.94;100.00
21431;BME280;10876;49.038;10.608;2023-05-17T01:20:25;99340.72;;;6.16;100.00
21431;BME280;10876;49.038;10.608;2023-05-17T01:23:10;99342.41;;;6.27;100.00
21431;BME280;10876;49.038;10.608;2023-05-17T01:25:51;99346.09;;;5.96;100.00
21431;BME280;10876;49.038;10.608;2023-05-17T01:28:20;99352.56;;;5.90;100.00
21431;BME280;10876;49.038;10.608;2023-05-17T01:30:50;99344.94;;;5.92;100.00
21431;BME280;10876;49.038;10.608;2023-05-17T01:33:17;99359.78;;;5.74;100.00
21431;BME280;10876;49.038;10.608;2023-05-17T01:35:45;99359.72;;;5.58;100.00
21431;BME280;10876;49.038;10.608;2023-05-17T01:38:12;99362.63;;;5.52;100.00
21431;BME280;10876;49.038;10.608;2023-05-17T01:40:46;99367.63;;;5.65;100.00
21431;BME280;10876;49.038;10.608;2023-05-17T01:43:23;99369.28;;;5.71;100.00
21431;BME280;10876;49.038;10.608;2023-05-17T01:45:56;99373.69;;;5.82;100.00
21431;BME280;10876;49.038;10.608;2023-05-17T01:48:29;99365.66;;;5.98;100.00
21431;BME280;10876;49.038;10.608;2023-05-17T01:50:58;99372.78;;;6.09;100.00
21431;BME280;10876;49.038;10.608;2023-05-17T01:53:29;99365.16;;;6.06;100.00
21431;BME280;10876;49.038;10.608;2023-05-17T01:56:02;99371.69;;;6.05;100.00
21431;BME280;10876;49.038;10.608;2023-05-17T01:58:36;99367.06;;;6.05;100.00
21431;BME280;10876;49.038;10.608;2023-05-17T02:01:05;99371.09;;;5.98;100.00
21431;BME280;10876;49.038;10.608;2023-05-17T02:03:32;99369.75;;;6.00;100.00
21431;BME280;10876;49.038;10.608;2023-05-17T02:05:59;99369.53;;;6.07;100.00
21431;BME280;10876;49.038;10.608;2023-05-17T02:08:26;99372.78;;;6.09;100.00
21431;BME280;10876;49.038;10.608;2023-05-17T02:10:52;99371.72;;;6.10;100.00
21431;BME280;10876;49.038;10.608;2023-05-17T02:13:19;99372.78;;;6.09;100.00
21431;BME280;10876;49.038;10.608;2023-05-17T02:15:47;99377.69;;;6.12;100.00
21431;BME280;10876;49.038;10.608;2023-05-17T02:18:14;99372.25;;;6.12;100.00
21431;BME280;10876;49.038;10.608;2023-05-17T02:20:40;99376.84;;;6.01;100.00
21431;BME280;10876;49.038;10.608;2023-05-17T02:23:07;99376.34;;;5.72;100.00
21431;BME280;10876;49.038;10.608;2023-05-17T02:25:34;99373.06;;;5.65;100.00
21431;BME280;10876;49.038;10.608;2023-05-17T02:28:01;99375.00;;;5.70;100.00
21431;BME280;10876;49.038;10.608;2023-05-17T02:30:27;99366.53;;;5.61;100.00
21431;BME280;10876;49.038;10.608;2023-05-17T02:32:56;99367.72;;;5.43;100.00
21431;BME280;10876;49.038;10.608;2023-05-17T02:35:22;99374.53;;;5.46;100.00
21431;BME280;10876;49.038;10.608;2023-05-17T02:37:49;99373.09;;;5.70;100.00
21431;BME280;10876;49.038;10.608;2023-05-17T02:40:16;99375.28;;;5.73;100.00
21431;BME280;10876;49.038;10.608;2023-05-17T02:42:43;99372.97;;;5.55;100.00
21431;BME280;10876;49.038;10.608;2023-05-17T02:45:10;99379.69;;;5.42;100.00
21431;BME280;10876;49.038;10.608;2023-05-17T02:47:37;99382.22;;;5.54;100.00
21431;BME280;10876;49.038;10.608;2023-05-17T02:50:06;99375.53;;;5.67;100.00
21431;BME280;10876;49.038;10.608;2023-05-17T02:52:32;99381.53;;;5.74;100.00
21431;BME280;10876;49.038;10.608;2023-05-17T02:54:59;99376.78;;;5.54;100.00
21431;BME280;10876;49.038;10.608;2023-05-17T02:57:26;99374.66;;;5.61;100.00
21431;BME280;10876;49.038;10.608;2023-05-17T02:59:52;99387.22;;;5.35;100.00
21431;BME280;10876;49.038;10.608;2023-05-17T03:02:19;99383.25;;;5.48;100.00
21431;BME280;10876;49.038;10.608;2023-05-17T03:04:46;99381.41;;;5.53;100.00
21431;BME280;10876;49.038;10.608;2023-05-17T03:07:14;99390.41;;;5.59;100.00
21431;BME280;10876;49.038;10.608;2023-05-17T03:09:40;99391.75;;;5.56;100.00
21431;BME280;10876;49.038;10.608;2023-05-17T03:12:08;99389.34;;;5.65;100.00
21431;BME280;10876;49.038;10.608;2023-05-17T03:14:34;99386.59;;;5.60;100.00
21431;BME280;10876;49.038;10.608;2023-05-17T03:17:01;99384.97;;;5.59;100.00
21431;BME280;10876;49.038;10.608;2023-05-17T03:19:28;99393.69;;;5.61;100.00
21431;BME280;10876;49.038;10.608;2023-05-17T03:21:54;99390.31;;;5.49;100.00
21431;BME280;10876;49.038;10.608;2023-05-17T03:24:22;99394.91;;;5.11;100.00
21431;BME280;10876;49.038;10.608;2023-05-17T03:26:49;99394.72;;;4.90;100.00
21431;BME280;10876;49.038;10.608;2023-05-17T03:29:16;99399.53;;;4.83;100.00
21431;BME280;10876;49.038;10.608;2023-05-17T03:31:42;99397.78;;;4.72;100.00
21431;BME280;10876;49.038;10.608;2023-05-17T03:34:09;99395.34;;;4.70;100.00
21431;BME280;10876;49.038;10.608;2023-05-17T03:36:37;99399.38;;;4.68;100.00
21431;BME280;10876;49.038;10.608;2023-05-17T03:39:04;99402.59;;;4.65;100.00
21431;BME280;10876;49.038;10.608;2023-05-17T03:41:33;99407.41;;;4.58;100.00
21431;BME280;10876;49.038;10.608;2023-05-17T03:44:00;99413.53;;;4.48;100.00
21431;BME280;10876;49.038;10.608;2023-05-17T03:46:26;99416.63;;;4.57;100.00
21431;BME280;10876;49.038;10.608;2023-05-17T03:48:53;99413.00;;;4.73;100.00
21431;BME280;10876;49.038;10.608;2023-05-17T03:51:20;99415.72;;;4.73;100.00
21431;BME280;10876;49.038;10.608;2023-05-17T03:53:47;99413.38;;;4.82;100.00
21431;BME280;10876;49.038;10.608;2023-05-17T03:56:13;99411.84;;;4.91;100.00
21431;BME280;10876;49.038;10.608;2023-05-17T03:58:43;99413.31;;;5.04;100.00
21431;BME280;10876;49.038;10.608;2023-05-17T04:01:10;99413.06;;;5.05;100.00
21431;BME280;10876;49.038;10.608;2023-05-17T04:03:36;99413.03;;;5.32;100.00
21431;BME280;10876;49.038;10.608;2023-05-17T04:06:05;99411.94;;;5.33;100.00
21431;BME280;10876;49.038;10.608;2023-05-17T04:08:32;99412.50;;;5.35;100.00
21431;BME280;10876;49.038;10.608;2023-05-17T04:10:59;99422.41;;;5.52;100.00
21431;BME280;10876;49.038;10.608;2023-05-17T04:13:34;99419.22;;;5.60;100.00
21431;BME280;10876;49.038;10.608;2023-05-17T04:16:02;99429.31;;;5.64;100.00
21431;BME280;10876;49.038;10.608;2023-05-17T04:18:29;99424.88;;;5.53;100.00
21431;BME280;10876;49.038;10.608;2023-05-17T04:20:56;99428.16;;;5.55;100.00
21431;BME280;10876;49.038;10.608;2023-05-17T04:23:22;99420.34;;;5.64;100.00
21431;BME280;10876;49.038;10.608;2023-05-17T04:25:49;99425.78;;;5.64;100.00
21431;BME280;10876;49.038;10.608;2023-05-17T04:28:16;99433.94;;;5.69;100.00
21431;BME280;10876;49.038;10.608;2023-05-17T04:30:44;99434.25;;;5.73;100.00
21431;BME280;10876;49.038;10.608;2023-05-17T04:33:12;99438.03;;;5.72;100.00
21431;BME280;10876;49.038;10.608;2023-05-17T04:35:40;99437.28;;;5.76;100.00
21431;BME280;10876;49.038;10.608;2023-05-17T04:38:08;99439.47;;;5.79;100.00
21431;BME280;10876;49.038;10.608;2023-05-17T04:40:35;99440.03;;;5.86;100.00
21431;BME280;10876;49.038;10.608;2023-05-17T04:43:02;99448.75;;;5.88;100.00
21431;BME280;10876;49.038;10.608;2023-05-17T04:45:29;99440.34;;;5.90;100.00
21431;BME280;10876;49.038;10.608;2023-05-17T04:47:57;99439.06;;;5.98;100.00
21431;BME280;10876;49.038;10.608;2023-05-17T04:50:26;99441.84;;;6.08;100.00
21431;BME280;10876;49.038;10.608;2023-05-17T04:52:53;99446.25;;;6.19;100.00
21431;BME280;10876;49.038;10.608;2023-05-17T04:55:19;99443.56;;;6.29;100.00
21431;BME280;10876;49.038;10.608;2023-05-17T04:57:46;99448.19;;;6.29;100.00
21431;BME280;10876;49.038;10.608;2023-05-17T05:00:13;99444.69;;;6.34;100.00
21431;BME280;10876;49.038;10.608;2023-05-17T05:02:41;99451.25;;;6.38;100.00
21431;BME280;10876;49.038;10.608;2023-05-17T05:05:08;99445.56;;;6.44;100.00
21431;BME280;10876;49.038;10.608;2023-05-17T05:07:36;99452.38;;;6.52;100.00
21431;BME280;10876;49.038;10.608;2023-05-17T05:10:04;99452.69;;;6.56;100.00
21431;BME280;10876;49.038;10.608;2023-05-17T05:12:31;99456.53;;;6.65;100.00
21431;BME280;10876;49.038;10.608;2023-05-17T05:14:58;99448.69;;;6.73;100.00
21431;BME280;10876;49.038;10.608;2023-05-17T05:17:24;99463.94;;;6.80;100.00
21431;BME280;10876;49.038;10.608;2023-05-17T05:19:51;99465.03;;;6.84;100.00
21431;BME280;10876;49.038;10.608;2023-05-17T05:22:18;99463.97;;;6.90;100.00
21431;BME280;10876;49.038;10.608;2023-05-17T05:24:46;99471.09;;;7.01;100.00
21431;BME280;10876;49.038;10.608;2023-05-17T05:27:15;99473.25;;;7.09;100.00
21431;BME280;10876;49.038;10.608;2023-05-17T05:29:42;99473.84;;;7.16;100.00
21431;BME280;10876;49.038;10.608;2023-05-17T05:32:09;99476.03;;;7.25;100.00
21431;BME280;10876;49.038;10.608;2023-05-17T05:34:36;99477.69;;;7.36;100.00
21431;BME280;10876;49.038;10.608;2023-05-17T05:37:04;99470.06;;;7.53;100.00
21431;BME280;10876;49.038;10.608;2023-05-17T05:39:30;99477.97;;;7.60;100.00
21431;BME280;10876;49.038;10.608;2023-05-17T05:41:58;99475.78;;;7.72;100.00
21431;BME280;10876;49.038;10.608;2023-05-17T05:44:25;99477.69;;;7.77;100.00
21431;BME280;10876;49.038;10.608;2023-05-17T05:46:52;99476.59;;;7.88;100.00
21431;BME280;10876;49.038;10.608;2023-05-17T05:49:19;99482.03;;;7.98;100.00
21431;BME280;10876;49.038;10.608;2023-05-17T05:51:45;99488.59;;;7.97;100.00
21431;BME280;10876;49.038;10.608;2023-05-17T05:54:12;99494.56;;;8.15;100.00
21431;BME280;10876;49.038;10.608;2023-05-17T05:56:39;99500.00;;;8.25;100.00
21431;BME280;10876;49.038;10.608;2023-05-17T05:59:07;99497.78;;;8.37;100.00
21431;BME280;10876;49.038;10.608;2023-05-17T06:01:34;99507.06;;;8.56;100.00
21431;BME280;10876;49.038;10.608;2023-05-17T06:04:00;99508.69;;;8.57;100.00
21431;BME280;10876;49.038;10.608;2023-05-17T06:06:27;99506.50;;;8.60;100.00
21431;BME280;10876;49.038;10.608;2023-05-17T06:08:54;99521.22;;;8.69;100.00
21431;BME280;10876;49.038;10.608;2023-05-17T06:11:20;99529.16;;;8.70;100.00
21431;BME280;10876;49.038;10.608;2023-05-17T06:13:48;99526.13;;;8.67;100.00
21431;BME280;10876;49.038;10.608;2023-05-17T06:16:16;99534.63;;;8.65;100.00
21431;BME280;10876;49.038;10.608;2023-05-17T06:18:43;99542.25;;;8.58;100.00
21431;BME280;10876;49.038;10.608;2023-05-17T06:21:10;99539.22;;;8.70;100.00
21431;BME280;10876;49.038;10.608;2023-05-17T06:23:39;99552.31;;;8.78;100.00
21431;BME280;10876;49.038;10.608;2023-05-17T06:26:06;99545.69;;;9.05;100.00
21431;BME280;10876;49.038;10.608;2023-05-17T06:28:34;99548.59;;;9.18;100.00
21431;BME280;10876;49.038;10.608;2023-05-17T06:31:01;99552.16;;;9.19;100.00
21431;BME280;10876;49.038;10.608;2023-05-17T06:33:29;99549.91;;;9.31;100.00
21431;BME280;10876;49.038;10.608;2023-05-17T06:35:56;99543.63;;;9.31;100.00
21431;BME280;10876;49.038;10.608;2023-05-17T06:38:23;99548.22;;;9.40;100.00
21431;BME280;10876;49.038;10.608;2023-05-17T06:40:50;99561.34;;;9.38;100.00
21431;BME280;10876;49.038;10.608;2023-05-17T06:43:17;99556.72;;;9.39;100.00
21431;BME280;10876;49.038;10.608;2023-05-17T06:45:44;99555.34;;;9.36;100.00
21431;BME280;10876;49.038;10.608;2023-05-17T06:48:11;99551.38;;;9.58;100.00
21431;BME280;10876;49.038;10.608;2023-05-17T06:50:39;99559.09;;;9.51;100.00
21431;BME280;10876;49.038;10.608;2023-05-17T06:53:06;99555.00;;;9.48;100.00
21431;BME280;10876;49.038;10.608;2023-05-17T06:55:33;99557.97;;;9.57;100.00
21431;BME280;10876;49.038;10.608;2023-05-17T06:57:59;99561.72;;;9.66;100.00
21431;BME280;10876;49.038;10.608;2023-05-17T07:00:26;99565.28;;;9.66;100.00
21431;BME280;10876;49.038;10.608;2023-05-17T07:02:53;99560.00;;;9.80;100.00
21431;BME280;10876;49.038;10.608;2023-05-17T07:05:21;99558.88;;;9.81;100.00
21431;BME280;10876;49.038;10.608;2023-05-17T07:07:49;99557.00;;;9.77;100.00
21431;BME280;10876;49.038;10.608;2023-05-17T07:10:16;99557.69;;;9.92;100.00
21431;BME280;10876;49.038;10.608;2023-05-17T07:12:43;99560.28;;;10.13;100.00
21431;BME280;10876;49.038;10.608;2023-05-17T07:15:10;99560.75;;;10.20;100.00
21431;BME280;10876;49.038;10.608;2023-05-17T07:17:37;99553.72;;;10.43;100.00
21431;BME280;10876;49.038;10.608;2023-05-17T07:20:04;99554.50;;;10.49;100.00
21431;BME280;10876;49.038;10.608;2023-05-17T07:22:32;99547.03;;;10.78;100.00
21431;BME280;10876;49.038;10.608;2023-05-17T07:25:00;99546.41;;;10.87;100.00
21431;BME280;10876;49.038;10.608;2023-05-17T07:27:27;99540.28;;;11.38;100.00
21431;BME280;10876;49.038;10.608;2023-05-17T07:29:54;99528.19;;;10.96;100.00
21431;BME280;10876;49.038;10.608;2023-05-17T07:32:20;99532.91;;;11.14;100.00
21431;BME280;10876;49.038;10.608;2023-05-17T07:34:47;99525.28;;;11.11;100.00
21431;BME280;10876;49.038;10.608;2023-05-17T07:37:13;99522.59;;;11.06;100.00
21431;BME280;10876;49.038;10.608;2023-05-17T07:39:40;99519.94;;;11.39;100.00
21431;BME280;10876;49.038;10.608;2023-05-17T07:42:08;99519.88;;;11.44;100.00
21431;BME280;10876;49.038;10.608;2023-05-17T07:44:35;99508.66;;;11.97;100.00
21431;BME280;10876;49.038;10.608;2023-05-17T07:47:02;99515.34;;;11.91;100.00
21431;BME280;10876;49.038;10.608;2023-05-17T07:49:29;99497.09;;;12.00;100.00
21431;BME280;10876;49.038;10.608;2023-05-17T07:51:56;99502.63;;;12.14;100.00
21431;BME280;10876;49.038;10.608;2023-05-17T07:54:24;99498.59;;;12.39;100.00
21431;BME280;10876;49.038;10.608;2023-05-17T07:56:52;99494.00;;;12.48;100.00
21431;BME280;10876;49.038;10.608;2023-05-17T07:59:21;99481.28;;;12.52;100.00
21431;BME280;10876;49.038;10.608;2023-05-17T08:01:48;99487.16;;;12.32;100.00
21431;BME280;10876;49.038;10.608;2023-05-17T08:04:15;99485.69;;;12.53;100.00
21431;BME280;10876;49.038;10.608;2023-05-17T08:06:42;99472.13;;;12.71;100.00
21431;BME280;10876;49.038;10.608;2023-05-17T08:09:10;99476.81;;;12.56;100.00
21431;BME280;10876;49.038;10.608;2023-05-17T08:11:37;99477.72;;;12.79;100.00
21431;BME280;10876;49.038;10.608;2023-05-17T08:14:10;99469.56;;;12.88;100.00
21431;BME280;10876;49.038;10.608;2023-05-17T08:16:39;99472.50;;;13.05;100.00
21431;BME280;10876;49.038;10.608;2023-05-17T08:19:06;99472.88;;;13.26;100.00
21431;BME280;10876;49.038;10.608;2023-05-17T08:21:32;99469.72;;;13.56;100.00
21431;BME280;10876;49.038;10.608;2023-05-17T08:24:01;99463.59;;;13.59;100.00
21431;BME280;10876;49.038;10.608;2023-05-17T08:26:28;99458.28;;;13.62;100.00
21431;BME280;10876;49.038;10.608;2023-05-17T08:28:55;99459.44;;;13.47;100.00
21431;BME280;10876;49.038;10.608;2023-05-17T08:31:22;99459.34;;;13.52;100.00
21431;BME280;10876;49.038;10.608;2023-05-17T08:33:50;99448.94;;;13.49;100.00
21431;BME280;10876;49.038;10.608;2023-05-17T08:36:16;99448.84;;;13.55;100.00
21431;BME280;10876;49.038;10.608;2023-05-17T08:38:43;99456.56;;;13.97;100.00
21431;BME280;10876;49.038;10.608;2023-05-17T08:41:11;99449.47;;;13.74;100.00
21431;BME280;10876;49.038;10.608;2023-05-17T08:43:38;99449.06;;;13.44;100.00
21431;BME280;10876;49.038;10.608;2023-05-17T08:46:05;99450.56;;;13.73;100.00
21431;BME280;10876;49.038;10.608;2023-05-17T08:48:33;99451.75;;;14.03;100.00
21431;BME280;10876;49.038;10.608;2023-05-17T08:51:07;99440.59;;;14.39;100.00
21431;BME280;10876;49.038;10.608;2023-05-17T08:53:35;99434.75;;;14.10;100.00
21431;BME280;10876;49.038;10.608;2023-05-17T08:56:03;99425.47;;;14.28;100.00
21431;BME280;10876;49.038;10.608;2023-05-17T08:58:33;99429.06;;;13.75;100.00
21431;BME280;10876;49.038;10.608;2023-05-17T09:34:23;99408.44;;;14.83;100.00
21431;BME280;10876;49.038;10.608;2023-05-17T09:36:50;99416.53;;;14.71;100.00
21431;BME280;10876;49.038;10.608;2023-05-17T09:39:17;99409.94;;;15.16;100.00
21431;BME280;10876;49.038;10.608;2023-05-17T09:41:45;99400.19;;;15.09;100.00
21431;BME280;10876;49.038;10.608;2023-05-17T09:44:14;99413.66;;;15.46;100.00
21431;BME280;10876;49.038;10.608;2023-05-17T09:46:45;99384.06;;;15.81;100.00
21431;BME280;10876;49.038;10.608;2023-05-17T09:49:12;99394.44;;;15.93;100.00
21431;BME280;10876;49.038;10.608;2023-05-17T09:51:41;99389.16;;;15.18;100.00
21431;BME280;10876;49.038;10.608;2023-05-17T09:54:09;99399.47;;;14.52;100.00
21431;BME280;10876;49.038;10.608;2023-05-17T09:56:36;99407.25;;;13.87;100.00
21431;BME280;10876;49.038;10.608;2023-05-17T09:59:09;99426.41;;;14.63;100.00
21431;BME280;10876;49.038;10.608;2023-05-17T10:01:37;99425.38;;;14.11;100.00
21431;BME280;10876;49.038;10.608;2023-05-17T10:04:08;99423.81;;;14.67;100.00
21431;BME280;10876;49.038;10.608;2023-05-17T10:06:36;99427.06;;;14.29;100.00
21431;BME280;10876;49.038;10.608;2023-05-17T10:09:09;99430.25;;;14.14;100.00
21431;BME280;10876;49.038;10.608;2023-05-17T10:11:39;99441.00;;;13.70;100.00
21431;BME280;10876;49.038;10.608;2023-05-17T10:14:10;99438.19;;;13.84;100.00
21431;BME280;10876;49.038;10.608;2023-05-17T10:16:39;99437.19;;;13.80;100.00
21431;BME280;10876;49.038;10.608;2023-05-17T10:19:07;99441.06;;;13.79;100.00
21431;BME280;10876;49.038;10.608;2023-05-17T10:21:36;99425.63;;;14.01;100.00
21431;BME280;10876;49.038;10.608;2023-05-17T10:24:06;99439.19;;;13.66;100.00
21431;BME280;10876;49.038;10.608;2023-05-17T10:26:34;99436.03;;;13.36;100.00
21431;BME280;10876;49.038;10.608;2023-05-17T10:29:02;99448.03;;;13.04;100.00
21431;BME280;10876;49.038;10.608;2023-05-17T10:31:30;99465.00;;;12.70;100.00
21431;BME280;10876;49.038;10.608;2023-05-17T10:33:58;99471.91;;;12.67;100.00
21431;BME280;10876;49.038;10.608;2023-05-17T10:36:26;99473.13;;;12.75;100.00
21431;BME280;10876;49.038;10.608;2023-05-17T10:38:53;99478.44;;;12.85;100.00
21431;BME280;10876;49.038;10.608;2023-05-17T10:41:24;99482.09;;;12.67;100.00
21431;BME280;10876;49.038;10.608;2023-05-17T10:43:53;99478.44;;;12.57;100.00
21431;BME280;10876;49.038;10.608;2023-05-17T10:46:21;99480.47;;;12.66;100.00
21431;BME280;10876;49.038;10.608;2023-05-17T10:48:49;99476.56;;;13.08;100.00
21431;BME280;10876;49.038;10.608;2023-05-17T10:51:21;99465.94;;;13.29;100.00
21431;BME280;10876;49.038;10.608;2023-05-17T10:54:07;99455.53;;;13.40;100.00
21431;BME280;10876;49.038;10.608;2023-05-17T10:56:38;99450.19;;;13.43;100.00
21431;BME280;10876;49.038;10.608;2023-05-17T10:59:16;99448.06;;;13.40;100.00
21431;BME280;10876;49.038;10.608;2023-05-17T11:01:58;99445.00;;;13.64;100.00
21431;BME280;10876;49.038;10.608;2023-05-17T11:04:26;99422.50;;;13.93;100.00
21431;BME280;10876;49.038;10.608;2023-05-17T11:07:26;99429.22;;;13.79;100.00
21431;BME280;10876;49.038;10.608;2023-05-17T11:09:54;99424.03;;;14.00;100.00
21431;BME280;10876;49.038;10.608;2023-05-17T11:12:44;99429.66;;;13.94;100.00
21431;BME280;10876;49.038;10.608;2023-05-17T11:15:13;99437.16;;;14.03;100.00
21431;BME280;10876;49.038;10.608;2023-05-17T11:17:48;99431.41;;;13.90;100.00
21431;BME280;10876;49.038;10.608;2023-05-17T11:20:33;99433.50;;;14.56;100.00
21431;BME280;10876;49.038;10.608;2023-05-17T11:23:02;99424.41;;;14.15;100.00
21431;BME280;10876;49.038;10.608;2023-05-17T11:25:31;99440.69;;;13.72;100.00
21431;BME280;10876;49.038;10.608;2023-05-17T11:28:06;99437.75;;;13.91;100.00
21431;BME280;10876;49.038;10.608;2023-05-17T11:30:33;99440.31;;;13.65;100.00
21431;BME280;10876;49.038;10.608;2023-05-17T11:33:00;99449.72;;;13.64;100.00
21431;BME280;10876;49.038;10.608;2023-05-17T11:35:30;99461.41;;;13.47;100.00
21431;BME280;10876;49.038;10.608;2023-05-17T11:38:15;99449.44;;;13.29;100.00
21431;BME280;10876;49.038;10.608;2023-05-17T11:40:42;99450.88;;;13.13;100.00
21431;BME280;10876;49.038;10.608;2023-05-17T11:43:13;99459.72;;;13.23;100.00
21431;BME280;10876;49.038;10.608;2023-05-17T11:45:45;99469.41;;;13.21;100.00
21431;BME280;10876;49.038;10.608;2023-05-17T11:48:14;99465.97;;;13.01;100.00
21431;BME280;10876;49.038;10.608;2023-05-17T11:50:42;99471.09;;;12.94;100.00
21431;BME280;10876;49.038;10.608;2023-05-17T11:53:10;99475.06;;;12.88;100.00
21431;BME280;10876;49.038;10.608;2023-05-17T11:55:37;99472.72;;;12.95;100.00
21431;BME280;10876;49.038;10.608;2023-05-17T11:58:06;99465.34;;;13.04;100.00
21431;BME280;10876;49.038;10.608;2023-05-17T12:00:35;99461.09;;;12.98;100.00
21431;BME280;10876;49.038;10.608;2023-05-17T12:03:20;99465.59;;;12.94;100.00
21431;BME280;10876;49.038;10.608;2023-05-17T12:05:47;99467.41;;;12.99;100.00
21431;BME280;10876;49.038;10.608;2023-05-17T12:08:15;99453.53;;;13.04;100.00
21431;BME280;10876;49.038;10.608;2023-05-17T12:10:48;99446.00;;;13.10;100.00
21431;BME280;10876;49.038;10.608;2023-05-17T12:13:15;99452.84;;;12.98;100.00
21431;BME280;10876;49.038;10.608;2023-05-17T12:15:50;99463.66;;;12.95;100.00
21431;BME280;10876;49.038;10.608;2023-05-17T12:18:18;99460.38;;;12.93;100.00
21431;BME280;10876;49.038;10.608;2023-05-17T12:20:53;99466.09;;;12.96;100.00
21431;BME280;10876;49.038;10.608;2023-05-17T12:23:31;99469.06;;;12.86;100.00
21431;BME280;10876;49.038;10.608;2023-05-17T12:26:06;99469.69;;;12.83;100.00
21431;BME280;10876;49.038;10.608;2023-05-17T12:28:33;99474.31;;;13.10;100.00
21431;BME280;10876;49.038;10.608;2023-05-17T12:31:08;99485.63;;;13.08;100.00
21431;BME280;10876;49.038;10.608;2023-05-17T12:33:37;99482.47;;;13.01;100.00
21431;BME280;10876;49.038;10.608;2023-05-17T12:36:07;99485.94;;;13.07;100.00
21431;BME280;10876;49.038;10.608;2023-05-17T12:38:35;99490.84;;;12.96;100.00
21431;BME280;10876;49.038;10.608;2023-05-17T12:41:03;99496.06;;;12.56;100.00
21431;BME280;10876;49.038;10.608;2023-05-17T12:43:32;99493.81;;;12.86;100.00
21431;BME280;10876;49.038;10.608;2023-05-17T12:46:06;99502.88;;;12.73;100.00
21431;BME280;10876;49.038;10.608;2023-05-17T12:48:34;99500.22;;;12.40;100.00
21431;BME280;10876;49.038;10.608;2023-05-17T12:51:08;99505.88;;;12.30;100.00
21431;BME280;10876;49.038;10.608;2023-05-17T12:53:35;99517.84;;;12.06;100.00
21431;BME280;10876;49.038;10.608;2023-05-17T12:56:03;99516.88;;;12.30;100.00
21431;BME280;10876;49.038;10.608;2023-05-17T12:58:30;99521.34;;;12.26;100.00
21431;BME280;10876;49.038;10.608;2023-05-17T13:00:58;99526.97;;;12.34;100.00
21431;BME280;10876;49.038;10.608;2023-05-17T13:03:27;99531.56;;;12.39;100.00
21431;BME280;10876;49.038;10.608;2023-05-17T13:06:03;99530.34;;;12.45;100.00
21431;BME280;10876;49.038;10.608;2023-05-17T13:08:30;99525.06;;;12.49;100.00
21431;BME280;10876;49.038;10.608;2023-05-17T13:11:10;99520.38;;;12.49;100.00
21431;BME280;10876;49.038;10.608;2023-05-17T13:13:37;99526.06;;;12.53;100.00
21431;BME280;10876;49.038;10.608;2023-05-17T13:16:04;99518.91;;;12.38;100.00
21431;BME280;10876;49.038;10.608;2023-05-17T13:18:49;99535.63;;;12.55;100.00
21431;BME280;10876;49.038;10.608;2023-05-17T13:21:17;99536.84;;;12.49;100.00
21431;BME280;10876;49.038;10.608;2023-05-17T13:23:46;99526.47;;;12.46;100.00
21431;BME280;10876;49.038;10.608;2023-05-17T13:26:13;99523.81;;;12.41;100.00